Terminal Aerodrome Forecast
Issued by NWS Jackson, MS

Home | Current Version | Previous Version | Text Only | Print | Product List | Glossary On
Versions: 1 2 3 4 5 6 7 8 9 10 11 12 13 14
489
FTUS44 KJAN 300542
TAFGLH
TAF
KGLH 300542Z 3006/0106 14012KT P6SM VCSH BKN045
     FM300900 17014KT 6SM -SHRA VCTS BKN015 BKN025CB
     FM301600 18015G24KT 6SM -TSRA OVC040CB
     FM301900 18014G22KT P6SM VCSH OVC040
     FM010200 16008KT P6SM VCSH OVC025=

USA.gov is the U.S. government's official web portal to all federal, state and local government web resources and services.